Station: Hindmarsh Island  

  Atmospheric Gas Attenuation - ITU Rec 676-11   ----------------- dB/100km -----------------
Date Time Temp RH % AH g/m3 Dew Point Wind Direction Speed kph Gust kph Barometer mB Rainfall Since 9am 24GHz 47GHz 76GHz 122GHz 134GHz 241GHz
06/05 16:30 14.1 92 11.17 12.8 35 48 1022.2 1 25.1 30.5 50.9 133.9 134.4 464.1
06/05 16:20 14.1 92 11.17 12.8 39 44 1022.2 1 25.1 30.5 50.9 133.9 134.4 464.1
06/05 16:10 15 90 11.54 13.4 43 52 1022 0.8 25.8 30.8 51.9 136.6 138.1 477.2
06/05 16:00 16.3 77 10.68 12.3 37 65 1021.7 0.4 23.9 28.9 47.4 124.5 123.7 427.1
06/05 15:50 17.1 71 10.33 11.8 35 39 1021.8 0.4 23.1 28.0 45.4 119.4 117.6 406.2
06/05 15:40 17.2 70 10.25 11.7 35 43 1021.7 0.4 22.9 27.9 45.1 118.4 116.4 401.9
06/05 15:30 17.3 70 10.31 11.8 39 46 1021.5 0.4 23.0 27.9 45.2 118.9 117.0 404.1
06/05 15:20 17.3 68 10.02 11.3 39 44 1021.4 0.4 22.4 27.5 44.0 115.7 113.2 390.5
06/05 15:10 17.4 70 10.37 11.9 41 44 1021.4 0.4 23.2 28.0 45.4 119.4 117.7 406.4
06/05 15:00 17.6 71 10.65 12.3 35 50 1021.3 0.4 23.7 28.4 46.4 122.1 121.2 418.5
06/05 14:50 17.8 67 10.17 11.6 35 41 1021.3 0.4 22.7 27.5 44.4 116.6 114.4 395.0
06/05 14:40 17.8 68 10.32 11.8 37 41 1021.1 0.4 23.0 27.8 45.0 118.2 116.4 401.9
06/05 14:30 18 67 10.29 11.8 26 35 1021.1 0.4 23.0 27.7 44.7 117.6 115.7 399.5
06/05 14:20 18.1 68 10.51 12.1 30 35 1021.2 0.4 23.4 28.0 45.6 119.8 118.5 409.2
06/05 14:10 18.5 66 10.44 12 30 37 1021.2 0.4 23.2 27.8 45.1 118.4 116.9 403.9
06/05 14:00 18.2 66 10.26 11.7 30 39 1021.1 0.4 22.9 27.6 44.5 116.9 115.0 397.1
06/05 13:50 17.9 70 10.69 12.4 30 37 1021.2 0.4 23.8 28.4 46.4 122.1 121.2 418.7
06/05 13:40 16.8 66 9.44 10.4 30 35 1021.3 0.4 21.2 26.7 42.0 110.2 106.2 366.1
06/05 13:30 16.6 69 9.75 10.9 35 44 1021.2 0.4 21.9 27.2 43.3 113.8 110.6 381.3
06/05 13:20 16.6 73 10.31 11.7 39 43 1021.3 0.4 23.1 28.2 45.6 119.9 118.1 407.7
06/05 13:10 16.8 77 11.01 12.7 33 37 1021.4 0.4 24.6 29.3 48.4 127.4 127.4 440.2
06/05 13:00 16.7 80 11.37 13.2 35 46 1021.4 0.4 25.3 29.9 50.0 131.7 132.6 458.3
06/05 12:50 16.4 87 12.14 14.2 28 32 1021.6 0.4 27.0 31.4 53.6 141.1 144.1 498.5
06/05 12:40 16.1 87 11.92 13.9 33 35 1021.6 0.4 26.5 31.1 52.8 139.1 141.5 489.3
06/05 12:30 16.1 87 11.92 13.9 28 37 1021.8 0.4 26.5 31.1 52.8 139.1 141.5 489.4
06/05 12:20 16.8 85 12.15 14.3 26 32 1021.8 0.4 27.0 31.3 53.4 140.5 143.5 496.5
06/05 12:10 16.8 86 12.29 14.4 22 28 1021.9 0.4 27.3 31.5 54.0 142.2 145.5 503.6
06/05 12:00 16.4 87 12.14 14.2 26 33 1022 0.4 27.0 31.4 53.6 141.2 144.2 498.6
06/05 11:50 16.1 86 11.79 13.8 24 32 1022.2 0.4 26.3 30.9 52.3 137.6 139.7 483.0
06/05 11:40 16 87 11.85 13.8 28 33 1022.3 0.4 26.4 31.0 52.6 138.5 140.7 486.7
06/05 11:30 15.8 87 11.71 13.6 20 33 1022.4 0.4 26.1 30.9 52.1 137.3 139.1 481.0
06/05 11:20 16 86 11.72 13.7 26 30 1022.5 0.4 26.1 30.8 52.1 137.0 138.9 480.3
06/05 11:10 17.2 78 11.42 13.3 22 28 1022.5 0 25.4 29.9 50.0 131.5 132.5 458.1
06/05 11:00 17.2 78 11.42 13.3 20 30 1022.5 0 25.4 29.9 50.0 131.5 132.5 458.1
06/05 10:50 16.9 80 11.51 13.4 22 26 1022.4 0 25.6 30.1 50.5 133.0 134.3 464.3
06/05 09:10 15.4 84 11.04 12.7 13 15 1022.6 0 24.7 29.8 49.5 130.2 130.3 450.1
06/05 09:00 15.3 86 11.23 13 11 19 1022.7 0 25.1 30.2 50.4 132.6 133.2 460.1
06/05 08:50 15 87 11.16 12.9 13 15 1022.7 0.2 25.0 30.2 50.3 132.3 132.7 458.4
06/05 08:40 14.8 88 11.15 12.8 13 15 1022.7 0.2 25.0 30.2 50.4 132.5 132.9 459.1
06/05 08:30 14.7 90 11.33 13.1 11 17 1022.8 0.2 25.4 30.6 51.2 134.8 135.7 468.8
06/05 08:20 14.5 91 11.32 13 11 13 1022.6 0.2 25.4 30.6 51.3 135.0 135.9 469.4
06/05 08:10 14.3 91 11.18 12.9 13 13 1022.5 0.2 25.1 30.5 50.8 133.7 134.2 463.5
06/05 08:00 14.3 91 11.18 12.9 15 22 1022.3 0.2 25.1 30.5 50.8 133.7 134.2 463.5
06/05 07:50 14.4 90 11.13 12.8 19 20 1022.3 0.2 25.0 30.3 50.5 132.9 133.3 460.4
06/05 07:40 14.4 91 11.25 13 11 13 1022.3 0.2 25.2 30.5 51.0 134.3 135.0 466.4
06/05 07:30 14.2 91 11.11 12.8 13 17 1022.2 0.2 24.9 30.4 50.6 133.0 133.3 460.5
06/05 07:20 14.3 91 11.18 12.9 13 13 1022.2 0.2 25.1 30.5 50.8 133.7 134.1 463.4
06/05 07:10 14.2 91 11.11 12.8 15 19 1022.2 0.2 24.9 30.4 50.6 133.0 133.3 460.5
06/05 07:00 14.3 91 11.18 12.9 15 26 1022.3 0.2 25.1 30.5 50.8 133.7 134.2 463.5
06/05 06:50 14.3 90 11.06 12.7 11 13 1022.2 0.2 24.8 30.2 50.3 132.3 132.4 457.4
06/05 06:40 14.3 90 11.06 12.7 11 11 1022.2 0.2 24.8 30.2 50.3 132.3 132.4 457.4
06/05 06:30 14.6 87 10.89 12.5 15 20 1022.2 0 24.4 29.8 49.3 129.8 129.5 447.1
06/05 06:20 14.7 82 10.32 11.7 11 15 1022.2 0 23.2 28.8 46.8 123.1 121.3 418.5
06/05 06:10 14.7 82 10.32 11.7 9 11 1022 0 23.2 28.8 46.8 123.1 121.3 418.5
06/05 06:00 14.6 82 10.26 11.6 11 13 1022 0 23.1 28.7 46.6 122.5 120.6 416.1
06/05 05:50 14.5 82 10.2 11.5 9 13 1021.9 0 23.0 28.7 46.4 122.0 119.9 413.7
06/05 05:40 14.5 82 10.2 11.5 11 11 1022 0 23.0 28.7 46.4 122.0 119.9 413.7
06/05 05:30 14.7 81 10.2 11.5 13 17 1022.1 0 23.0 28.6 46.3 121.7 119.6 412.7
06/05 05:20 14.6 82 10.26 11.6 11 15 1022.1 0 23.1 28.7 46.6 122.6 120.6 416.1
06/05 05:10 14.5 83 10.32 11.6 11 13 1022.1 0 23.2 28.9 46.9 123.4 121.6 419.6
06/05 05:00 14.5 83 10.32 11.7 7 11 1022.1 0 23.2 28.9 46.9 123.4 121.6 419.6
06/05 04:50 14.4 83 10.26 11.6 7 7 1022 0 23.1 28.8 46.7 122.9 120.9 417.1
06/05 04:40 14.4 83 10.26 11.6 7 7 1021.9 0 23.1 28.8 46.7 122.8 120.9 417.1
06/05 04:30 14.4 83 10.26 11.6 6 9 1021.9 0 23.1 28.8 46.7 122.8 120.9 417.1
06/05 04:20 14.3 83 10.2 11.5 7 9 1021.9 0 23.0 28.7 46.5 122.3 120.2 414.7
06/05 04:10 14.3 83 10.2 11.5 7 7 1021.9 0 23.0 28.7 46.5 122.3 120.2 414.7
06/05 04:00 14.3 82 10.07 11.3 7 9 1021.9 0 22.7 28.5 46.0 120.9 118.4 408.4
06/05 03:50 14.3 81 9.95 11.1 7 9 1022 0 22.4 28.3 45.5 119.5 116.7 402.6
06/05 03:40 14.4 80 9.89 11 7 9 1022 0 22.3 28.2 45.2 118.7 115.8 399.2
06/05 03:30 14.5 80 9.95 11.1 9 15 1022.2 0 22.4 28.3 45.4 119.2 116.4 401.6
06/05 03:20 14.5 80 9.95 11.1 9 9 1022.2 0 22.4 28.3 45.4 119.2 116.4 401.6
06/05 03:10 14.5 79 9.83 10.9 9 11 1022.2 0 22.2 28.1 44.9 117.9 114.8 395.8
06/05 03:00 14.6 79 9.89 11 9 11 1022.3 0 22.3 28.1 45.1 118.4 115.5 398.3
06/05 02:50 14.6 78 9.76 10.8 7 9 1022.2 0 22.0 27.9 44.5 117.0 113.7 392.0
06/05 02:40 14.5 78 9.7 10.7 7 7 1022.3 0 21.9 27.8 44.3 116.5 113.0 389.6
06/05 02:30 14.6 78 9.76 10.8 9 11 1022.4 0 22.0 27.9 44.5 117.0 113.7 392.0
06/05 02:20 14.6 78 9.76 10.8 9 13 1022.4 0 22.0 27.9 44.5 117.0 113.7 392.0
06/05 02:10 14.6 77 9.64 10.6 9 11 1022.6 0 21.8 27.7 44.0 115.7 112.1 386.4
06/05 02:00 14.5 78 9.7 10.7 9 13 1022.6 0 21.9 27.9 44.4 116.5 113.0 389.7
06/05 01:50 14.6 77 9.64 10.6 9 9 1022.7 0 21.8 27.7 44.1 115.7 112.1 386.4
06/05 01:40 14.5 77 9.58 10.5 11 13 1022.8 0 21.6 27.7 43.9 115.2 111.4 384.1
06/05 01:30 14.6 77 9.64 10.6 11 13 1022.9 0 21.8 27.7 44.1 115.7 112.1 386.5
06/05 01:20 14.6 76 9.51 10.4 9 11 1023 0 21.5 27.5 43.5 114.3 110.3 380.3
06/05 01:10 14.6 76 9.51 10.4 11 13 1023.1 0 21.5 27.5 43.5 114.3 110.4 380.3
06/05 01:00 14.6 76 9.51 10.4 9 11 1023.1 0 21.5 27.5 43.5 114.3 110.4 380.3
06/05 00:50 14.6 75 9.39 10.2 9 11 1023.1 0 21.2 27.3 43.0 113.0 108.7 374.6
06/05 00:40 14.6 75 9.39 10.2 11 13 1023.1 0 21.2 27.3 43.0 113.0 108.7 374.6
06/05 00:30 14.6 74 9.26 10 9 11 1023.1 0 20.9 27.1 42.5 111.5 107.0 368.5
06/05 00:20 14.6 74 9.26 10 7 7 1023.2 0 20.9 27.1 42.5 111.6 107.0 368.5
06/05 00:10 14.7 74 9.32 10.1 9 11 1023.3 0 21.1 27.2 42.7 112.1 107.7 370.9
06/05 00:00 14.7 74 9.32 10.1 9 11 1023.3 0 21.1 27.2 42.7 112.1 107.7 370.9
05/05 23:50 14.8 74 9.37 10.2 9 9 1023.3 0 21.2 27.2 42.9 112.5 108.2 372.8
05/05 23:40 14.8 74 9.37 10.2 9 11 1023.4 0 21.2 27.2 42.9 112.5 108.2 372.8
05/05 23:30 14.8 74 9.37 10.2 11 15 1023.5 0 21.2 27.2 42.9 112.5 108.2 372.9
05/05 23:20 14.8 73 9.25 10 9 13 1023.6 0 20.9 27.0 42.4 111.2 106.6 367.2
05/05 23:10 14.8 73 9.25 10 11 13 1023.6 0 20.9 27.0 42.4 111.2 106.6 367.2
05/05 23:00 14.8 73 9.25 10 9 15 1023.7 0 20.9 27.1 42.4 111.2 106.6 367.3
05/05 22:50 14.7 73 9.19 9.9 9 11 1023.8 0 20.8 27.0 42.2 110.7 106.0 364.9
05/05 22:40 14.6 74 9.26 10 9 9 1023.9 0 20.9 27.1 42.5 111.6 107.0 368.7
05/05 22:30 14.5 75 9.33 10.1 9 11 1023.9 0 21.1 27.3 42.9 112.5 108.1 372.5

Last Refresh: 06-May-2026 16:35:53

Bureau of Meteorology